Time;durP1;ratioP1;P1;durP2;ratioP2;P2;SDS_P1;SDS_P2;PMS_P1;PMS_P2;Temp;Humidity;BMP_temperature;BMP_pressure;BME280_temperature;BME280_humidity;BME280_pressure;Samples;Min_cycle;Max_cycle;Signal;HPM_P1;HPM_P2
2023/05/26 00:02:24;;;;;;;4.03;3.63;;;22.00;48.90;;;;;;5068130;28;45398;-71
2023/05/26 00:04:51;;;;;;;4.40;3.65;;;22.00;49.00;;;;;;5067223;28;45193;-70
2023/05/26 00:07:18;;;;;;;3.45;3.15;;;22.00;49.00;;;;;;5068040;28;45244;-70
2023/05/26 00:09:45;;;;;;;3.50;3.20;;;21.90;49.00;;;;;;5068334;28;45213;-72
2023/05/26 00:12:13;;;;;;;4.53;3.40;;;21.90;49.00;;;;;;5068380;28;45372;-70
2023/05/26 00:14:40;;;;;;;3.10;2.80;;;21.90;49.00;;;;;;5067914;28;46395;-71
2023/05/26 00:17:07;;;;;;;4.20;3.78;;;21.90;49.10;;;;;;5068415;28;45303;-71
2023/05/26 00:19:37;;;;;;;3.75;3.45;;;21.80;49.10;;;;;;5068470;28;45376;-71
2023/05/26 00:22:04;;;;;;;5.75;3.40;;;21.80;49.10;;;;;;5068263;28;45307;-76
2023/05/26 00:24:31;;;;;;;5.28;3.60;;;21.80;49.10;;;;;;5067896;28;46552;-70
2023/05/26 00:26:58;;;;;;;3.80;3.38;;;21.80;49.20;;;;;;5067929;28;45297;-70
2023/05/26 00:29:26;;;;;;;3.53;3.05;;;21.80;49.20;;;;;;5067997;28;45233;-70
2023/05/26 00:31:53;;;;;;;3.72;3.42;;;21.70;49.20;;;;;;5068195;28;45284;-71
2023/05/26 00:34:20;;;;;;;3.95;3.15;;;21.70;49.20;;;;;;5067575;28;45240;-71
2023/05/26 00:36:47;;;;;;;5.25;3.53;;;21.70;49.20;;;;;;5067729;28;45177;-71
2023/05/26 00:39:14;;;;;;;5.13;3.50;;;21.70;49.20;;;;;;5067428;28;45224;-71
2023/05/26 00:41:41;;;;;;;3.63;3.33;;;21.70;49.30;;;;;;5067939;28;45230;-71
2023/05/26 00:44:07;;;;;;;3.85;3.38;;;21.70;49.30;;;;;;5067512;28;46453;-71
2023/05/26 00:46:36;;;;;;;4.43;3.47;;;21.70;49.40;;;;;;5067834;28;45298;-71
2023/05/26 00:49:03;;;;;;;4.50;3.20;;;21.60;49.30;;;;;;5067344;28;45281;-71
2023/05/26 00:51:31;;;;;;;4.13;3.35;;;21.60;49.40;;;;;;5067836;28;45394;-71
2023/05/26 00:53:58;;;;;;;3.67;3.25;;;21.60;49.40;;;;;;5067614;28;45460;-70
2023/05/26 00:56:27;;;;;;;4.93;3.50;;;21.60;49.40;;;;;;5067981;28;45237;-71
2023/05/26 00:58:54;;;;;;;3.60;3.20;;;21.60;49.40;;;;;;5067793;28;45186;-70
2023/05/26 01:01:21;;;;;;;3.50;3.20;;;21.50;49.40;;;;;;5067702;28;45404;-70
2023/05/26 01:03:49;;;;;;;3.90;3.47;;;21.50;49.40;;;;;;5067117;28;45734;-71
2023/05/26 01:06:17;;;;;;;3.47;3.17;;;21.50;49.40;;;;;;5067311;28;45268;-71
2023/05/26 01:08:43;;;;;;;3.50;3.20;;;21.50;49.50;;;;;;5067394;28;45292;-70
2023/05/26 01:11:14;;;;;;;3.90;3.28;;;21.50;49.50;;;;;;5067432;28;45485;-71
2023/05/26 01:13:46;;;;;;;3.65;3.20;;;21.50;49.50;;;;;;5067325;28;45456;-71
2023/05/26 01:16:13;;;;;;;3.42;3.00;;;21.40;49.50;;;;;;5067327;28;45277;-70
2023/05/26 01:18:42;;;;;;;4.50;3.40;;;21.40;49.50;;;;;;5067562;28;45229;-71
2023/05/26 01:21:12;;;;;;;4.70;3.40;;;21.40;49.60;;;;;;5067426;28;45599;-70
2023/05/26 01:23:56;;;;;;;3.53;3.22;;;21.40;49.60;;;;;;5066802;28;45415;-71
2023/05/26 01:26:43;;;;;;;6.18;3.63;;;21.40;49.60;;;;;;5067312;28;45272;-71
2023/05/26 01:29:11;;;;;;;4.43;3.38;;;21.30;49.60;;;;;;5067245;28;45281;-71
2023/05/26 01:31:39;;;;;;;3.65;3.15;;;21.30;49.60;;;;;;5067010;28;45465;-71
2023/05/26 01:34:06;;;;;;;3.53;3.22;;;21.30;49.70;;;;;;5066263;28;45376;-71
2023/05/26 01:36:33;;;;;;;3.47;3.20;;;21.30;49.70;;;;;;5066240;28;45274;-70
2023/05/26 01:38:59;;;;;;;3.50;3.20;;;21.30;49.70;;;;;;5066408;28;45256;-70
2023/05/26 01:41:29;;;;;;;4.15;2.88;;;21.30;49.70;;;;;;5066323;28;45503;-70
2023/05/26 01:44:00;;;;;;;3.97;3.40;;;21.20;49.70;;;;;;5066024;28;45627;-71
2023/05/26 01:46:31;;;;;;;4.47;3.30;;;21.20;49.70;;;;;;5066094;28;45240;-71
2023/05/26 01:48:58;;;;;;;3.60;3.30;;;21.20;49.70;;;;;;5066231;28;45289;-72
2023/05/26 01:51:25;;;;;;;3.53;3.13;;;21.20;49.80;;;;;;5065600;28;45414;-71
2023/05/26 01:53:54;;;;;;;4.40;3.30;;;21.20;49.80;;;;;;5066016;28;47599;-70
2023/05/26 01:56:21;;;;;;;4.25;3.15;;;21.20;49.80;;;;;;5065915;28;45337;-70
2023/05/26 01:58:48;;;;;;;3.28;2.95;;;21.10;49.80;;;;;;5066176;28;45306;-71
2023/05/26 02:01:15;;;;;;;3.70;3.20;;;21.10;49.80;;;;;;5065898;28;45391;-70
2023/05/26 02:03:43;;;;;;;3.85;3.08;;;21.10;49.90;;;;;;5065815;28;46334;-70
2023/05/26 02:06:10;;;;;;;3.60;3.13;;;21.10;49.90;;;;;;5065875;28;45248;-71
2023/05/26 02:08:37;;;;;;;3.33;2.97;;;21.10;49.90;;;;;;5065970;28;45249;-71
2023/05/26 02:11:04;;;;;;;4.07;2.97;;;21.10;49.90;;;;;;5066137;28;45314;-70
2023/05/26 02:13:31;;;;;;;3.55;3.25;;;21.10;49.90;;;;;;5065717;28;46531;-71
2023/05/26 02:15:58;;;;;;;3.42;3.10;;;21.00;49.80;;;;;;5065721;28;45182;-71
2023/05/26 02:18:25;;;;;;;3.67;3.38;;;21.00;49.80;;;;;;5063200;28;45174;-71
2023/05/26 02:20:53;;;;;;;3.53;3.10;;;21.00;49.90;;;;;;5065994;28;45221;-71
2023/05/26 02:23:20;;;;;;;4.65;3.15;;;21.00;49.90;;;;;;5065403;28;45247;-71
2023/05/26 02:25:47;;;;;;;4.57;3.13;;;21.00;50.00;;;;;;5065633;28;45246;-71
2023/05/26 02:28:14;;;;;;;3.63;3.15;;;21.00;50.00;;;;;;5065740;28;45361;-70
2023/05/26 02:30:40;;;;;;;3.95;3.25;;;20.90;49.90;;;;;;5066002;28;45486;-71
2023/05/26 02:33:07;;;;;;;3.90;3.50;;;20.90;49.90;;;;;;5065345;28;45453;-70
2023/05/26 02:35:34;;;;;;;3.60;3.30;;;20.90;50.00;;;;;;5065342;28;45378;-71
2023/05/26 02:38:02;;;;;;;3.10;2.80;;;20.90;50.60;;;;;;5065588;28;45193;-70
2023/05/26 02:40:29;;;;;;;5.13;3.42;;;20.90;50.00;;;;;;5065661;28;45389;-71
2023/05/26 02:42:56;;;;;;;3.50;3.20;;;20.90;50.00;;;;;;5065278;28;45532;-70
2023/05/26 02:45:23;;;;;;;3.63;3.10;;;20.90;50.00;;;;;;5065326;28;45302;-71
2023/05/26 02:47:49;;;;;;;3.50;2.85;;;20.90;50.10;;;;;;5065517;28;45303;-70
2023/05/26 02:50:17;;;;;;;3.10;2.88;;;20.80;50.00;;;;;;5065606;28;45455;-71
2023/05/26 02:52:44;;;;;;;3.47;3.17;;;20.80;50.10;;;;;;5065183;28;46360;-70
2023/05/26 02:55:12;;;;;;;3.47;3.17;;;20.80;50.10;;;;;;5065253;28;45265;-71
2023/05/26 02:57:39;;;;;;;3.65;3.17;;;20.80;50.10;;;;;;5065379;28;45317;-70
2023/05/26 03:00:10;;;;;;;3.53;2.97;;;20.80;50.10;;;;;;5062742;28;45323;-71
2023/05/26 03:02:37;;;;;;;4.28;2.83;;;20.80;50.20;;;;;;5063776;28;46468;-71
2023/05/26 03:05:05;;;;;;;3.20;2.97;;;20.70;50.10;;;;;;5068622;28;45318;-70
2023/05/26 03:07:32;;;;;;;4.75;2.85;;;20.70;50.10;;;;;;5068778;28;45218;-70
2023/05/26 03:09:58;;;;;;;3.60;3.08;;;20.70;50.10;;;;;;5068857;28;45416;-70
2023/05/26 03:12:27;;;;;;;3.63;3.00;;;20.70;50.20;;;;;;5068396;28;45487;-71
2023/05/26 03:14:55;;;;;;;3.50;3.20;;;20.70;50.10;;;;;;5068444;28;45217;-70
2023/05/26 03:17:21;;;;;;;3.10;2.80;;;20.70;50.20;;;;;;5068707;28;45308;-70
2023/05/26 03:19:48;;;;;;;3.40;3.10;;;20.60;50.10;;;;;;5068712;28;45189;-71
2023/05/26 03:22:15;;;;;;;3.42;3.13;;;20.60;50.20;;;;;;5068261;28;46664;-70
2023/05/26 03:24:42;;;;;;;3.38;3.00;;;20.60;50.20;;;;;;5068183;28;45238;-70
2023/05/26 03:27:09;;;;;;;3.70;3.30;;;20.60;50.20;;;;;;5068457;28;45240;-71
2023/05/26 03:29:37;;;;;;;2.97;2.72;;;20.60;50.20;;;;;;5068462;28;45392;-70
2023/05/26 03:32:04;;;;;;;4.18;3.00;;;20.60;50.20;;;;;;5068059;28;45280;-70
2023/05/26 03:34:30;;;;;;;3.47;3.17;;;20.60;50.20;;;;;;5068118;28;45192;-71
2023/05/26 03:36:57;;;;;;;4.18;3.40;;;20.60;50.30;;;;;;5068279;28;45396;-71
2023/05/26 03:39:24;;;;;;;5.25;2.90;;;20.50;50.20;;;;;;5068315;28;45267;-71
2023/05/26 03:41:51;;;;;;;4.43;3.05;;;20.50;50.30;;;;;;5067845;28;46857;-71
2023/05/26 03:44:20;;;;;;;3.45;3.13;;;20.50;50.30;;;;;;5067917;28;45274;-70
2023/05/26 03:46:49;;;;;;;3.97;3.00;;;20.50;50.30;;;;;;5068113;28;45294;-71
2023/05/26 03:49:15;;;;;;;2.97;2.70;;;20.50;50.30;;;;;;5068292;28;45285;-70
2023/05/26 03:51:42;;;;;;;3.92;3.08;;;20.50;50.30;;;;;;5067764;28;46399;-71
2023/05/26 03:54:09;;;;;;;3.17;2.88;;;20.50;50.30;;;;;;5067812;28;45138;-71
2023/05/26 03:56:36;;;;;;;3.55;2.78;;;20.50;50.30;;;;;;5068004;28;45264;-71
2023/05/26 03:59:03;;;;;;;3.53;3.22;;;20.40;50.30;;;;;;5068045;28;45316;-70
2023/05/26 04:01:30;;;;;;;3.53;2.78;;;20.40;50.30;;;;;;5067379;28;46968;-70
2023/05/26 04:03:58;;;;;;;3.30;2.92;;;20.40;50.30;;;;;;5067675;28;45230;-71
2023/05/26 04:06:27;;;;;;;3.53;3.22;;;20.40;50.30;;;;;;5067777;28;45257;-70
2023/05/26 04:08:54;;;;;;;4.25;3.35;;;20.40;50.30;;;;;;5067833;28;45479;-71
2023/05/26 04:11:22;;;;;;;2.88;2.65;;;20.40;50.30;;;;;;5067512;28;45411;-71
2023/05/26 04:13:48;;;;;;;4.95;3.20;;;20.40;50.40;;;;;;5067060;28;45193;-71
2023/05/26 04:16:15;;;;;;;4.15;3.00;;;20.40;50.40;;;;;;5067691;28;45182;-70
2023/05/26 04:18:42;;;;;;;3.33;3.03;;;20.40;50.40;;;;;;5067725;28;45230;-70
2023/05/26 04:21:10;;;;;;;3.20;2.88;;;20.30;50.40;;;;;;5067362;28;46394;-70
2023/05/26 04:23:37;;;;;;;3.22;2.92;;;20.30;50.40;;;;;;5067199;28;45131;-70
2023/05/26 04:26:04;;;;;;;3.47;3.08;;;20.30;50.40;;;;;;5067665;28;45205;-70
2023/05/26 04:28:30;;;;;;;3.63;2.80;;;20.30;50.40;;;;;;5067650;28;45538;-70
2023/05/26 04:30:57;;;;;;;3.83;3.08;;;20.30;50.50;;;;;;5067221;28;45748;-71
2023/05/26 04:33:25;;;;;;;3.30;2.97;;;20.30;50.50;;;;;;5067336;28;45307;-70
2023/05/26 04:35:51;;;;;;;3.33;2.90;;;20.30;50.50;;;;;;5067539;28;45355;-71
2023/05/26 04:38:20;;;;;;;2.88;2.53;;;20.30;50.50;;;;;;5067585;28;45173;-71
2023/05/26 04:40:48;;;;;;;3.28;2.95;;;20.30;50.50;;;;;;5066879;28;46382;-70
2023/05/26 04:43:15;;;;;;;3.90;3.13;;;20.30;50.50;;;;;;5066949;28;45230;-70
2023/05/26 04:45:43;;;;;;;3.13;2.83;;;20.20;50.50;;;;;;5067054;28;45241;-70
2023/05/26 04:48:10;;;;;;;3.80;2.70;;;20.20;50.50;;;;;;5066934;28;45482;-70
2023/05/26 04:50:38;;;;;;;6.28;3.08;;;20.20;51.10;;;;;;5066755;28;46727;-70
2023/05/26 04:53:05;;;;;;;3.25;2.95;;;20.20;50.50;;;;;;5066775;28;45361;-70
2023/05/26 04:55:35;;;;;;;3.08;2.75;;;20.20;50.50;;;;;;5066929;28;45339;-71
2023/05/26 04:58:02;;;;;;;3.78;2.92;;;20.20;50.50;;;;;;5067008;28;45486;-70
2023/05/26 05:00:31;;;;;;;3.72;2.90;;;20.20;50.50;;;;;;5066731;28;46883;-70
2023/05/26 05:02:58;;;;;;;3.22;2.67;;;20.20;50.50;;;;;;5066252;28;45228;-70
2023/05/26 05:05:25;;;;;;;3.22;2.92;;;20.20;50.50;;;;;;5066699;28;45201;-70
2023/05/26 05:07:51;;;;;;;4.25;3.08;;;20.20;50.50;;;;;;5066842;28;45241;-70
2023/05/26 05:10:18;;;;;;;3.25;2.95;;;20.20;50.50;;;;;;5066383;28;46432;-70
2023/05/26 05:12:47;;;;;;;3.20;2.80;;;20.20;50.50;;;;;;5066461;28;45329;-70
2023/05/26 05:15:14;;;;;;;3.15;2.85;;;20.20;50.50;;;;;;5066694;28;45361;-71
2023/05/26 05:17:41;;;;;;;2.97;2.58;;;20.20;50.50;;;;;;5066858;28;45273;-71
2023/05/26 05:20:09;;;;;;;3.40;2.83;;;20.20;50.50;;;;;;5066428;28;45300;-71
2023/05/26 05:22:36;;;;;;;3.47;2.65;;;20.20;50.50;;;;;;5066392;28;45328;-71
2023/05/26 05:25:03;;;;;;;2.95;2.70;;;20.20;50.50;;;;;;5066155;27;45334;-71
2023/05/26 05:27:30;;;;;;;4.45;2.90;;;20.20;50.50;;;;;;5065930;28;45227;-70
2023/05/26 05:29:58;;;;;;;2.85;2.47;;;20.20;50.50;;;;;;5066186;28;45528;-71
2023/05/26 05:32:25;;;;;;;3.83;3.00;;;20.20;50.50;;;;;;5066277;28;45294;-71
2023/05/26 05:34:52;;;;;;;3.50;2.80;;;20.20;50.50;;;;;;5066438;28;45363;-71
2023/05/26 05:37:18;;;;;;;3.65;3.05;;;20.10;50.40;;;;;;5066503;28;45402;-71
2023/05/26 05:39:45;;;;;;;3.00;2.80;;;20.20;50.50;;;;;;5066281;28;46347;-71
2023/05/26 05:42:12;;;;;;;2.75;2.55;;;20.10;50.40;;;;;;5066190;28;45224;-70
2023/05/26 05:44:39;;;;;;;2.83;2.53;;;20.20;50.50;;;;;;5066051;28;45247;-71
2023/05/26 05:47:08;;;;;;;3.00;2.70;;;20.20;50.50;;;;;;5066655;28;45284;-71
2023/05/26 05:49:34;;;;;;;2.80;2.38;;;20.20;50.50;;;;;;5065958;28;45257;-71
2023/05/26 05:52:01;;;;;;;3.20;2.90;;;20.20;50.50;;;;;;5065916;28;46243;-71
2023/05/26 05:54:28;;;;;;;2.75;2.55;;;20.20;50.50;;;;;;5066139;28;45276;-71
2023/05/26 05:56:55;;;;;;;2.80;2.50;;;20.20;50.40;;;;;;5066241;28;45428;-71
2023/05/26 05:59:22;;;;;;;3.83;2.92;;;20.20;50.50;;;;;;5065795;28;45355;-71
2023/05/26 06:01:48;;;;;;;2.88;2.58;;;20.20;50.50;;;;;;5065716;28;45295;-71
2023/05/26 06:04:17;;;;;;;2.65;2.45;;;20.20;50.50;;;;;;5065920;28;45253;-71
2023/05/26 06:06:50;;;;;;;3.50;2.78;;;20.20;50.50;;;;;;5066141;28;45220;-70
2023/05/26 06:09:17;;;;;;;3.17;2.42;;;20.20;50.40;;;;;;5065586;28;45212;-70
2023/05/26 06:11:43;;;;;;;3.53;2.60;;;20.20;50.40;;;;;;5065757;28;46102;-71
2023/05/26 06:14:10;;;;;;;3.10;2.60;;;20.20;50.40;;;;;;5065912;28;45372;-71
2023/05/26 06:16:37;;;;;;;2.90;2.70;;;20.20;50.40;;;;;;5065879;28;45522;-71
2023/05/26 06:19:04;;;;;;;3.60;2.30;;;20.20;50.40;;;;;;5065537;28;46280;-71
2023/05/26 06:21:32;;;;;;;2.78;2.47;;;20.20;50.30;;;;;;5065752;28;45190;-71
2023/05/26 06:23:59;;;;;;;3.05;2.58;;;20.20;50.30;;;;;;5065601;28;45298;-70
2023/05/26 06:26:26;;;;;;;3.25;2.95;;;20.20;50.30;;;;;;5065808;28;45332;-71
2023/05/26 06:28:53;;;;;;;3.40;3.10;;;20.20;50.30;;;;;;5065456;28;46510;-70
2023/05/26 06:31:20;;;;;;;3.78;2.28;;;20.20;50.30;;;;;;5065597;28;45177;-71
2023/05/26 06:33:47;;;;;;;2.85;2.45;;;20.30;50.40;;;;;;5065674;28;45202;-71
2023/05/26 06:36:14;;;;;;;3.70;2.95;;;20.30;50.70;;;;;;5065745;28;45420;-70
2023/05/26 06:38:42;;;;;;;2.95;2.53;;;20.30;50.40;;;;;;5068559;28;45438;-71
2023/05/26 06:41:09;;;;;;;3.33;2.58;;;20.30;50.30;;;;;;5068911;28;45479;-71
2023/05/26 06:43:35;;;;;;;2.80;2.60;;;20.30;50.40;;;;;;5068894;28;45307;-71
2023/05/26 06:46:02;;;;;;;3.22;2.67;;;20.30;50.30;;;;;;5069311;28;45135;-71
2023/05/26 06:48:29;;;;;;;2.72;2.45;;;20.30;50.30;;;;;;5068768;28;46727;-71
2023/05/26 06:50:56;;;;;;;3.05;2.75;;;20.30;50.30;;;;;;5068991;28;45279;-71
2023/05/26 06:53:23;;;;;;;5.38;2.38;;;20.30;50.30;;;;;;5068882;28;45344;-70
2023/05/26 06:55:51;;;;;;;2.90;2.60;;;20.30;50.30;;;;;;5069112;28;45192;-70
2023/05/26 06:58:17;;;;;;;3.08;2.72;;;20.30;50.30;;;;;;5068861;28;45125;-71
2023/05/26 07:00:57;;;;;;;4.10;2.60;;;20.30;50.20;;;;;;5068654;28;45327;-71
2023/05/26 07:03:24;;;;;;;2.70;2.50;;;20.40;50.30;;;;;;5068626;28;45302;-70
2023/05/26 07:05:50;;;;;;;2.90;2.60;;;20.40;50.20;;;;;;5069016;28;45180;-71
2023/05/26 07:08:17;;;;;;;3.10;2.55;;;20.40;50.30;;;;;;5068537;28;46400;-71
2023/05/26 07:10:44;;;;;;;2.75;2.55;;;20.40;50.20;;;;;;5068574;28;45351;-71
2023/05/26 07:13:13;;;;;;;2.50;2.30;;;20.40;50.20;;;;;;5068743;28;45457;-71
2023/05/26 07:15:40;;;;;;;2.75;2.50;;;20.50;50.30;;;;;;5068871;28;45139;-71
2023/05/26 07:18:07;;;;;;;3.03;2.75;;;20.50;50.30;;;;;;5068323;28;46411;-71
2023/05/26 07:20:34;;;;;;;2.63;2.30;;;20.50;50.20;;;;;;5068498;28;45135;-71
2023/05/26 07:23:01;;;;;;;3.58;2.63;;;20.50;50.20;;;;;;5068576;28;45363;-71
2023/05/26 07:25:28;;;;;;;3.45;2.85;;;20.50;50.10;;;;;;5068800;28;45271;-71
2023/05/26 07:27:55;;;;;;;3.20;2.65;;;20.50;50.10;;;;;;5068147;28;45209;-70
2023/05/26 07:30:23;;;;;;;4.25;2.40;;;20.60;50.10;;;;;;5067855;28;45182;-70
2023/05/26 07:32:50;;;;;;;2.75;2.40;;;20.60;50.10;;;;;;5068469;28;45286;-70
2023/05/26 07:35:17;;;;;;;2.70;2.50;;;20.60;50.60;;;;;;5069060;28;45457;-71
2023/05/26 07:37:44;;;;;;;3.17;2.80;;;20.60;50.00;;;;;;5068858;28;47346;-70
2023/05/26 07:40:11;;;;;;;2.60;2.30;;;20.60;49.90;;;;;;5068696;28;45182;-71
2023/05/26 07:42:38;;;;;;;2.55;2.35;;;20.70;49.90;;;;;;5069047;28;45194;-71
2023/05/26 07:45:06;;;;;;;3.10;2.80;;;20.70;49.90;;;;;;5068796;28;45289;-71
2023/05/26 07:47:35;;;;;;;3.35;2.63;;;20.70;49.90;;;;;;5068572;28;46949;-71
2023/05/26 07:50:02;;;;;;;2.50;2.30;;;20.70;49.80;;;;;;5067808;28;45277;-70
2023/05/26 07:52:29;;;;;;;3.03;2.70;;;20.80;49.90;;;;;;5068571;28;45196;-70
2023/05/26 07:54:56;;;;;;;2.72;2.42;;;20.80;49.80;;;;;;5068875;28;45221;-71
2023/05/26 07:57:23;;;;;;;2.50;2.30;;;20.80;49.80;;;;;;5068440;28;46677;-71
2023/05/26 07:59:50;;;;;;;2.60;2.40;;;20.80;49.80;;;;;;5068425;28;45335;-71
2023/05/26 08:02:17;;;;;;;2.97;2.70;;;20.80;49.80;;;;;;5068069;28;45208;-71
2023/05/26 08:04:45;;;;;;;2.50;2.30;;;20.90;49.80;;;;;;5068687;28;45403;-71
2023/05/26 08:07:12;;;;;;;3.00;2.40;;;20.90;49.70;;;;;;5068254;28;46662;-71
2023/05/26 08:09:39;;;;;;;2.67;2.47;;;20.90;49.70;;;;;;5068190;28;45279;-71
2023/05/26 08:12:06;;;;;;;2.85;2.42;;;20.90;49.60;;;;;;5068208;28;45308;-71
2023/05/26 08:14:33;;;;;;;2.85;2.50;;;21.00;49.50;;;;;;5066386;28;45375;-71
2023/05/26 08:17:00;;;;;;;3.13;2.30;;;21.00;49.70;;;;;;5072002;28;45387;-71
2023/05/26 08:19:27;;;;;;;2.72;2.20;;;21.00;49.60;;;;;;5068356;28;45329;-70
2023/05/26 08:21:55;;;;;;;2.40;2.20;;;21.10;49.70;;;;;;5067653;28;45431;-70
2023/05/26 08:24:24;;;;;;;2.80;2.60;;;21.10;49.70;;;;;;5068300;28;45385;-71
2023/05/26 08:26:51;;;;;;;2.70;2.50;;;21.10;49.90;;;;;;5067960;28;46504;-70
2023/05/26 08:29:18;;;;;;;3.28;2.95;;;21.10;49.90;;;;;;5067940;28;45395;-71
2023/05/26 08:31:45;;;;;;;3.78;2.75;;;21.10;49.90;;;;;;5068084;28;45351;-71
2023/05/26 08:34:12;;;;;;;3.25;2.67;;;21.20;50.20;;;;;;5068159;28;45177;-71
2023/05/26 08:36:38;;;;;;;4.05;2.90;;;21.20;50.10;;;;;;5067412;28;46661;-70
2023/05/26 08:39:07;;;;;;;4.45;2.85;;;21.20;50.40;;;;;;5067610;28;45230;-70
2023/05/26 08:41:36;;;;;;;3.20;2.90;;;21.30;50.30;;;;;;5067272;28;45493;-70
2023/05/26 08:44:03;;;;;;;4.82;2.65;;;21.30;50.30;;;;;;5067823;28;45099;-70
2023/05/26 08:46:31;;;;;;;5.97;3.22;;;21.30;50.30;;;;;;5067464;28;45308;-70
2023/05/26 08:48:57;;;;;;;4.25;3.40;;;21.30;50.20;;;;;;5066993;28;45236;-70
2023/05/26 08:51:24;;;;;;;5.40;3.45;;;21.40;50.20;;;;;;5067511;28;45319;-70
2023/05/26 08:53:51;;;;;;;4.45;3.20;;;21.40;50.20;;;;;;5067364;28;45380;-71
2023/05/26 08:56:19;;;;;;;7.07;4.20;;;21.40;50.10;;;;;;5066737;28;46408;-70
2023/05/26 08:58:46;;;;;;;11.98;4.97;;;21.40;50.90;;;;;;5066860;28;45345;-70
2023/05/26 09:01:13;;;;;;;6.72;4.40;;;21.40;51.30;;;;;;5066867;28;45379;-70
2023/05/26 09:03:40;;;;;;;7.28;4.68;;;21.40;51.70;;;;;;5067143;28;45407;-70
2023/05/26 09:06:09;;;;;;;6.63;4.43;;;21.30;52.00;;;;;;5066762;28;45523;-70
2023/05/26 09:08:36;;;;;;;9.05;4.90;;;21.30;52.00;;;;;;5066986;28;45377;-70
2023/05/26 09:11:34;;;;;;;7.32;4.90;;;21.30;52.10;;;;;;5067099;28;45311;-70
2023/05/26 09:14:03;;;;;;;8.45;5.55;;;21.40;52.50;;;;;;5069068;27;45655;-70
2023/05/26 09:16:30;;;;;;;8.52;4.93;;;21.30;52.60;;;;;;5066842;28;45226;-70
2023/05/26 09:18:58;;;;;;;8.82;5.05;;;21.40;52.90;;;;;;5066603;28;45423;-72
2023/05/26 09:21:26;;;;;;;8.75;5.32;;;21.40;52.80;;;;;;5066951;28;45432;-70
2023/05/26 09:23:56;;;;;;;10.45;5.53;;;21.40;52.70;;;;;;5066936;28;45186;-70
2023/05/26 09:26:28;;;;;;;9.25;5.05;;;21.40;52.70;;;;;;5066393;28;46388;-70
2023/05/26 09:28:55;;;;;;;8.48;5.82;;;21.40;52.70;;;;;;5066575;28;45276;-71
2023/05/26 09:31:22;;;;;;;9.90;5.70;;;21.50;52.70;;;;;;5066679;28;45386;-70
2023/05/26 09:33:49;;;;;;;8.02;5.40;;;21.50;52.70;;;;;;5064781;28;45399;-70
2023/05/26 09:36:16;;;;;;;10.65;5.38;;;21.50;52.70;;;;;;5065661;28;45311;-70
2023/05/26 09:38:43;;;;;;;7.57;5.30;;;21.50;52.60;;;;;;5065644;28;45207;-70
2023/05/26 09:41:10;;;;;;;12.65;5.63;;;21.60;52.60;;;;;;5066356;28;45427;-71
2023/05/26 09:43:38;;;;;;;7.65;5.13;;;21.50;52.40;;;;;;5066051;28;45463;-72
2023/05/26 09:46:07;;;;;;;9.30;4.90;;;21.60;52.70;;;;;;5066231;28;45392;-73
2023/05/26 09:48:35;;;;;;;9.23;5.05;;;21.70;52.60;;;;;;5065950;28;45333;-71
2023/05/26 09:51:02;;;;;;;9.35;5.72;;;21.70;52.20;;;;;;5066329;28;45402;-72
2023/05/26 09:53:29;;;;;;;10.13;5.45;;;21.70;52.20;;;;;;5066102;28;45333;-71
2023/05/26 09:55:56;;;;;;;6.78;5.07;;;21.70;52.10;;;;;;5066095;28;45488;-72
2023/05/26 09:58:23;;;;;;;8.40;5.13;;;21.70;52.10;;;;;;5065782;28;45265;-72
2023/05/26 10:00:51;;;;;;;11.30;5.43;;;21.70;52.20;;;;;;5067316;28;45172;-73
2023/05/26 10:03:18;;;;;;;9.98;5.32;;;21.70;52.20;;;;;;5066787;28;45359;-73
2023/05/26 10:05:46;;;;;;;6.63;5.28;;;21.70;52.20;;;;;;5066506;28;46666;-73
2023/05/26 10:08:14;;;;;;;9.93;5.38;;;21.80;52.20;;;;;;5066844;28;45298;-73
2023/05/26 10:10:41;;;;;;;6.80;5.32;;;21.80;52.20;;;;;;5066980;28;45184;-73
2023/05/26 10:13:08;;;;;;;7.13;5.28;;;21.90;52.30;;;;;;5066232;28;45364;-71
2023/05/26 10:15:35;;;;;;;11.77;5.85;;;21.90;52.20;;;;;;5066537;28;46538;-71
2023/05/26 10:18:04;;;;;;;6.82;5.10;;;21.90;52.00;;;;;;5066478;28;45202;-72
2023/05/26 10:20:30;;;;;;;8.40;6.07;;;21.90;52.00;;;;;;5066557;28;45223;-70
2023/05/26 10:23:01;;;;;;;9.13;5.47;;;21.90;51.90;;;;;;5066304;28;45395;-70
2023/05/26 10:25:30;;;;;;;10.40;6.30;;;21.90;52.20;;;;;;5066024;28;45667;-71
2023/05/26 10:27:59;;;;;;;7.45;5.20;;;22.00;52.00;;;;;;5068274;28;45354;-71
2023/05/26 10:30:26;;;;;;;7.50;5.18;;;22.00;52.10;;;;;;5066715;28;45427;-71
2023/05/26 10:32:54;;;;;;;9.23;5.20;;;22.10;52.40;;;;;;5066315;28;45196;-70
2023/05/26 10:35:24;;;;;;;7.75;5.70;;;22.20;52.10;;;;;;5066278;28;47353;-71
2023/05/26 10:37:51;;;;;;;8.90;6.00;;;22.20;52.10;;;;;;5066519;28;45284;-71
2023/05/26 10:40:30;;;;;;;8.63;5.25;;;22.30;51.90;;;;;;5066513;28;45211;-71
2023/05/26 10:43:01;;;;;;;9.43;5.57;;;22.30;51.90;;;;;;5066310;28;45340;-70
2023/05/26 10:45:31;;;;;;;9.43;4.90;;;22.40;51.80;;;;;;5065811;28;46568;-71
2023/05/26 10:47:58;;;;;;;8.70;5.43;;;22.40;51.70;;;;;;5065941;28;45377;-71
2023/05/26 10:50:27;;;;;;;11.25;5.30;;;22.40;51.50;;;;;;5065575;28;45285;-70
2023/05/26 10:52:55;;;;;;;7.50;5.18;;;22.50;51.30;;;;;;5065820;28;45221;-70
2023/05/26 10:55:31;;;;;;;8.75;5.05;;;22.60;51.30;;;;;;5065302;28;45552;-70
2023/05/26 10:58:31;;;;;;;8.48;5.15;;;22.60;51.40;;;;;;5065458;28;45278;-71
2023/05/26 11:00:59;;;;;;;7.15;5.40;;;22.70;51.70;;;;;;5065651;27;45129;-70
2023/05/26 11:03:35;;;;;;;7.90;5.22;;;22.70;50.90;;;;;;5065510;28;45451;-70
2023/05/26 11:06:03;;;;;;;7.25;5.03;;;22.80;50.80;;;;;;5065040;28;46793;-71
2023/05/26 11:08:37;;;;;;;9.32;5.20;;;22.90;51.10;;;;;;5065380;28;45223;-70
2023/05/26 11:11:04;;;;;;;8.73;5.20;;;23.00;50.70;;;;;;5065851;28;45379;-70
2023/05/26 11:13:45;;;;;;;8.45;5.13;;;23.00;50.70;;;;;;5065788;28;45307;-71
2023/05/26 11:16:13;;;;;;;13.85;5.10;;;23.00;50.40;;;;;;5065511;28;45495;-70
2023/05/26 11:18:41;;;;;;;7.53;4.95;;;23.00;50.30;;;;;;5065518;28;45285;-70
2023/05/26 11:21:09;;;;;;;6.90;5.25;;;23.20;50.40;;;;;;5065679;28;45209;-70
2023/05/26 11:23:37;;;;;;;8.73;5.18;;;23.20;50.10;;;;;;5065730;28;45197;-71
2023/05/26 11:26:11;;;;;;;10.73;5.28;;;23.30;50.00;;;;;;5068845;28;47563;-70
2023/05/26 11:28:41;;;;;;;7.78;4.80;;;23.30;49.90;;;;;;5068679;28;45301;-71
2023/05/26 11:31:12;;;;;;;10.10;5.60;;;23.40;49.60;;;;;;5069101;28;45221;-70
2023/05/26 11:33:40;;;;;;;7.15;4.57;;;23.40;49.50;;;;;;5069029;28;45263;-71
2023/05/26 11:36:09;;;;;;;9.27;4.88;;;23.50;49.50;;;;;;5068692;28;46401;-70
2023/05/26 11:38:37;;;;;;;9.30;5.28;;;23.60;49.50;;;;;;5068620;28;45169;-71
2023/05/26 11:41:05;;;;;;;7.30;4.90;;;23.60;49.10;;;;;;5068651;28;45566;-71
2023/05/26 11:43:31;;;;;;;7.45;5.13;;;23.70;49.00;;;;;;5069123;28;45333;-71
2023/05/26 11:46:01;;;;;;;7.65;4.55;;;23.80;48.90;;;;;;5066113;28;45248;-71
2023/05/26 11:48:31;;;;;;;7.65;4.95;;;23.80;48.60;;;;;;5068693;28;45426;-72
2023/05/26 11:50:58;;;;;;;6.18;4.90;;;23.90;48.60;;;;;;5069021;28;45292;-71
2023/05/26 11:53:30;;;;;;;6.43;4.40;;;24.00;48.50;;;;;;5069125;28;45169;-72
2023/05/26 11:56:05;;;;;;;6.05;4.72;;;24.00;48.40;;;;;;5068289;28;46687;-70
2023/05/26 11:58:33;;;;;;;5.40;4.75;;;24.10;48.40;;;;;;5068220;28;45317;-71
2023/05/26 12:01:00;;;;;;;5.93;4.88;;;24.20;48.40;;;;;;5068815;28;45188;-71
2023/05/26 12:03:27;;;;;;;8.50;4.95;;;24.20;48.40;;;;;;5069562;28;45514;-70
2023/05/26 12:06:17;;;;;;;6.05;4.60;;;24.40;48.40;;;;;;5068442;28;45286;-72
2023/05/26 12:08:48;;;;;;;6.85;4.63;;;24.50;48.40;;;;;;5061906;28;45380;-72
2023/05/26 12:11:16;;;;;;;6.55;4.53;;;24.60;48.90;;;;;;5068768;28;45338;-72
2023/05/26 12:13:43;;;;;;;7.70;4.90;;;24.70;48.30;;;;;;5068707;28;45395;-72
2023/05/26 12:16:23;;;;;;;6.40;4.78;;;24.80;48.10;;;;;;5067543;28;45215;-72
2023/05/26 12:18:54;;;;;;;7.05;4.70;;;24.80;48.00;;;;;;5087491;28;45264;-71
2023/05/26 12:21:21;;;;;;;8.75;5.00;;;24.90;47.90;;;;;;5088266;27;45212;-71
2023/05/26 12:23:50;;;;;;;6.72;4.63;;;25.00;47.90;;;;;;5087063;27;45379;-72
2023/05/26 12:26:17;;;;;;;6.43;4.28;;;25.00;47.70;;;;;;5088502;27;46337;-72
2023/05/26 12:28:44;;;;;;;6.90;4.78;;;25.10;47.50;;;;;;5088434;27;45324;-71
2023/05/26 12:31:11;;;;;;;4.93;4.43;;;25.20;47.40;;;;;;5088283;27;45358;-71
2023/05/26 12:33:38;;;;;;;7.68;4.85;;;25.20;46.90;;;;;;5088600;27;45407;-73
2023/05/26 12:36:06;;;;;;;8.07;4.57;;;25.30;46.70;;;;;;5087870;27;45360;-73
2023/05/26 12:38:42;;;;;;;6.10;4.30;;;25.30;46.60;;;;;;5086447;27;45317;-72
2023/05/26 12:41:10;;;;;;;6.68;4.95;;;25.40;46.40;;;;;;5078367;27;45311;-72
2023/05/26 12:43:38;;;;;;;8.05;5.03;;;25.40;46.40;;;;;;5068265;28;45202;-72
2023/05/26 12:46:04;;;;;;;6.68;4.50;;;25.50;46.30;;;;;;5067756;28;45671;-72
2023/05/26 12:48:31;;;;;;;6.85;4.55;;;25.50;46.30;;;;;;5067802;28;45470;-72
2023/05/26 12:50:59;;;;;;;8.07;4.53;;;25.60;46.30;;;;;;5067924;28;45288;-72